XNO7E WSSS-YPPH
Flight info
| Callsign | XNO7E |
|---|---|
| Flight time | N/A |
| Altitude | 39000 |
| Route | ANITO8B ANITO B470 PKP L764 LAMOB B469 TOPIR/N0490F400 L514 AVPAL Q38 JULIM |
| Aircraft | A35K/H-SDE2E3GHIJ3J4J5LM1ORWXY/LB1D1 |
Departure
| Time | 2026-05-08 05:03 |
|---|---|
| Airport | Singapore Changi Airport (WSSS) |
Arrival
| Time | N/A |
|---|---|
| Airport | Perth International Airport (YPPH) |
| Time | Latitude | Longitude | Altitude | Speed | Heading |
|---|---|---|---|---|---|
| 2026-05-08 04:33 | 1.35255 | 103.99155 | 30 ft | 0 kts | 239° |
| 2026-05-08 04:55 | 1.35258 | 103.99159 | 30 ft | 4 kts | 239° |
| 2026-05-08 04:55 | 1.35271 | 103.99182 | 28 ft | 2 kts | 239° |
| 2026-05-08 04:55 | 1.35282 | 103.99201 | 28 ft | 4 kts | 244° |
| 2026-05-08 04:56 | 1.35290 | 103.99225 | 28 ft | 4 kts | 276° |
| 2026-05-08 04:56 | 1.35282 | 103.99239 | 27 ft | 4 kts | 352° |
| 2026-05-08 04:56 | 1.35255 | 103.99243 | 28 ft | 4 kts | 352° |
| 2026-05-08 04:56 | 1.35245 | 103.99244 | 29 ft | 0 kts | 352° |
| 2026-05-08 04:58 | 1.35247 | 103.99244 | 29 ft | 1 kts | 352° |
| 2026-05-08 04:58 | 1.35262 | 103.99241 | 29 ft | 3 kts | 350° |
| 2026-05-08 04:58 | 1.35290 | 103.99236 | 29 ft | 5 kts | 349° |
| 2026-05-08 04:59 | 1.35331 | 103.99230 | 30 ft | 7 kts | 353° |
| 2026-05-08 04:59 | 1.35384 | 103.99239 | 30 ft | 9 kts | 24° |
| 2026-05-08 04:59 | 1.35436 | 103.99283 | 30 ft | 11 kts | 45° |
| 2026-05-08 04:59 | 1.35492 | 103.99344 | 30 ft | 13 kts | 49° |
| 2026-05-08 05:00 | 1.35556 | 103.99417 | 30 ft | 15 kts | 46° |
| 2026-05-08 05:00 | 1.35652 | 103.99469 | 30 ft | 17 kts | 23° |
| 2026-05-08 05:00 | 1.35765 | 103.99518 | 30 ft | 19 kts | 22° |
| 2026-05-08 05:00 | 1.35890 | 103.99569 | 30 ft | 20 kts | 22° |
| 2026-05-08 05:01 | 1.36025 | 103.99625 | 30 ft | 22 kts | 22° |
| 2026-05-08 05:01 | 1.36117 | 103.99666 | 30 ft | 8 kts | 38° |
| 2026-05-08 05:01 | 1.36126 | 103.99719 | 30 ft | 8 kts | 101° |
| 2026-05-08 05:01 | 1.36104 | 103.99778 | 30 ft | 10 kts | 111° |
| 2026-05-08 05:02 | 1.36074 | 103.99827 | 30 ft | 5 kts | 155° |
| 2026-05-08 05:02 | 1.36041 | 103.99824 | 30 ft | 5 kts | 194° |
| 2026-05-08 05:02 | 1.36034 | 103.99821 | 30 ft | 0 kts | 199° |
| 2026-05-08 05:03 | 1.35933 | 103.99782 | 30 ft | 49 kts | 202° |
| 2026-05-08 05:03 | 1.35398 | 103.99555 | 30 ft | 116 kts | 203° |
| 2026-05-08 05:03 | 1.34467 | 103.99162 | 39 ft | 173 kts | 203° |
| 2026-05-08 05:03 | 1.33404 | 103.98650 | 826 ft | 166 kts | 205° |
| 2026-05-08 05:04 | 1.32313 | 103.98146 | 1332 ft | 183 kts | 202° |
| 2026-05-08 05:04 | 1.31039 | 103.97636 | 1627 ft | 211 kts | 201° |
| 2026-05-08 05:04 | 1.29588 | 103.97059 | 1908 ft | 238 kts | 202° |
| 2026-05-08 05:04 | 1.27994 | 103.96407 | 2423 ft | 255 kts | 202° |
| 2026-05-08 05:05 | 1.26330 | 103.95719 | 2844 ft | 261 kts | 202° |
| 2026-05-08 05:05 | 1.24638 | 103.95038 | 3164 ft | 264 kts | 199° |
| 2026-05-08 05:05 | 1.22847 | 103.94699 | 3816 ft | 267 kts | 181° |
| 2026-05-08 05:05 | 1.21002 | 103.95035 | 4649 ft | 270 kts | 155° |
| 2026-05-08 05:06 | 1.19400 | 103.96031 | 5385 ft | 274 kts | 147° |
| 2026-05-08 05:06 | 1.17675 | 103.96782 | 6125 ft | 276 kts | 161° |
| 2026-05-08 05:06 | 1.15871 | 103.97472 | 6897 ft | 280 kts | 158° |
| 2026-05-08 05:06 | 1.14082 | 103.98265 | 7694 ft | 283 kts | 154° |
| 2026-05-08 05:07 | 1.12329 | 103.99169 | 8526 ft | 285 kts | 151° |
| 2026-05-08 05:07 | 1.10611 | 104.00183 | 9382 ft | 288 kts | 147° |
| 2026-05-08 05:07 | 1.08977 | 104.01356 | 10196 ft | 291 kts | 140° |
| 2026-05-08 05:07 | 1.07481 | 104.02804 | 10647 ft | 309 kts | 133° |
| 2026-05-08 05:08 | 1.05991 | 104.04445 | 10968 ft | 329 kts | 131° |
| 2026-05-08 05:08 | 1.04443 | 104.06214 | 11288 ft | 347 kts | 130° |
| 2026-05-08 05:08 | 1.02803 | 104.08109 | 11609 ft | 364 kts | 130° |
| 2026-05-08 05:08 | 1.01149 | 104.10030 | 12024 ft | 375 kts | 130° |
| 2026-05-08 05:09 | 0.99488 | 104.12057 | 12598 ft | 380 kts | 125° |
| 2026-05-08 05:09 | 0.98207 | 104.14375 | 13212 ft | 383 kts | 114° |
| 2026-05-08 05:09 | 0.97153 | 104.16831 | 13806 ft | 387 kts | 112° |
| 2026-05-08 05:09 | 0.96119 | 104.19323 | 14376 ft | 390 kts | 112° |
| 2026-05-08 05:10 | 0.95058 | 104.21829 | 14949 ft | 393 kts | 114° |
| 2026-05-08 05:10 | 0.92299 | 104.26595 | 16082 ft | 399 kts | 121° |
| 2026-05-08 05:10 | 0.90816 | 104.28964 | 16627 ft | 403 kts | 121° |
| 2026-05-08 05:11 | 0.89326 | 104.31346 | 17159 ft | 406 kts | 121° |
| 2026-05-08 05:11 | 0.87827 | 104.33747 | 17704 ft | 409 kts | 121° |
| 2026-05-08 05:11 | 0.86314 | 104.36172 | 18293 ft | 414 kts | 121° |
| 2026-05-08 05:11 | 0.84785 | 104.38625 | 18763 ft | 417 kts | 121° |
| 2026-05-08 05:12 | 0.83252 | 104.41086 | 19261 ft | 418 kts | 121° |
| 2026-05-08 05:12 | 0.81707 | 104.43564 | 19697 ft | 421 kts | 121° |
| 2026-05-08 05:12 | 0.80044 | 104.45986 | 20115 ft | 424 kts | 125° |
| 2026-05-08 05:12 | 0.78303 | 104.48379 | 20556 ft | 427 kts | 125° |
| 2026-05-08 05:13 | 0.76556 | 104.50788 | 20995 ft | 430 kts | 124° |
| 2026-05-08 05:13 | 0.74802 | 104.53223 | 21418 ft | 433 kts | 125° |
| 2026-05-08 05:13 | 0.72832 | 104.55510 | 21831 ft | 438 kts | 136° |
| 2026-05-08 05:13 | 0.70315 | 104.57243 | 22245 ft | 444 kts | 153° |
| 2026-05-08 05:14 | 0.67442 | 104.58311 | 22701 ft | 449 kts | 161° |
| 2026-05-08 05:14 | 0.64437 | 104.59197 | 23123 ft | 452 kts | 162° |
| 2026-05-08 05:14 | 0.61402 | 104.60077 | 23534 ft | 455 kts | 162° |
| 2026-05-08 05:14 | 0.58351 | 104.60967 | 23901 ft | 458 kts | 162° |
| 2026-05-08 05:15 | 0.55283 | 104.61869 | 24278 ft | 461 kts | 161° |
| 2026-05-08 05:15 | 0.52196 | 104.62782 | 24660 ft | 464 kts | 161° |
| 2026-05-08 05:15 | 0.49091 | 104.63702 | 25053 ft | 467 kts | 161° |
| 2026-05-08 05:15 | 0.45967 | 104.64632 | 25470 ft | 470 kts | 161° |
| 2026-05-08 05:16 | 0.42825 | 104.65568 | 25907 ft | 473 kts | 161° |
| 2026-05-08 05:16 | 0.39662 | 104.66501 | 26331 ft | 476 kts | 161° |
| 2026-05-08 05:16 | 0.36473 | 104.67442 | 26786 ft | 479 kts | 161° |
| 2026-05-08 05:16 | 0.33262 | 104.68391 | 27251 ft | 483 kts | 161° |
| 2026-05-08 05:17 | 0.30035 | 104.69345 | 27709 ft | 486 kts | 161° |
| 2026-05-08 05:17 | 0.26781 | 104.70308 | 28164 ft | 489 kts | 161° |
| 2026-05-08 05:17 | 0.23499 | 104.71280 | 28624 ft | 493 kts | 161° |
| 2026-05-08 05:17 | 0.20202 | 104.72256 | 29051 ft | 496 kts | 161° |
| 2026-05-08 05:18 | 0.16880 | 104.73240 | 29470 ft | 500 kts | 161° |
| 2026-05-08 05:18 | 0.13537 | 104.74232 | 29883 ft | 503 kts | 161° |
| 2026-05-08 05:18 | 0.10176 | 104.75235 | 30219 ft | 506 kts | 161° |
| 2026-05-08 05:18 | 0.06788 | 104.76239 | 30547 ft | 509 kts | 161° |
| 2026-05-08 05:19 | 0.03385 | 104.77247 | 30867 ft | 512 kts | 161° |
| 2026-05-08 05:19 | -0.00039 | 104.78263 | 31277 ft | 512 kts | 161° |
| 2026-05-08 05:19 | -0.03442 | 104.79272 | 31749 ft | 511 kts | 161° |
| 2026-05-08 05:19 | -0.06848 | 104.80283 | 32189 ft | 510 kts | 161° |
| 2026-05-08 05:20 | -0.10253 | 104.81293 | 32670 ft | 509 kts | 161° |
| 2026-05-08 05:20 | -0.13642 | 104.82300 | 33112 ft | 508 kts | 161° |
| 2026-05-08 05:20 | -0.17025 | 104.83304 | 33551 ft | 507 kts | 161° |
| 2026-05-08 05:20 | -0.20400 | 104.84307 | 33970 ft | 506 kts | 162° |
| 2026-05-08 05:21 | -0.23767 | 104.85307 | 34331 ft | 505 kts | 162° |
| 2026-05-08 05:21 | -0.27087 | 104.86427 | 34687 ft | 503 kts | 156° |
| 2026-05-08 05:21 | -0.30208 | 104.87979 | 35022 ft | 499 kts | 147° |
| 2026-05-08 05:21 | -0.33144 | 104.89816 | 35359 ft | 498 kts | 145° |
| 2026-05-08 05:22 | -0.35989 | 104.91710 | 35689 ft | 497 kts | 144° |
| 2026-05-08 05:22 | -0.38838 | 104.93658 | 36057 ft | 495 kts | 143° |
| 2026-05-08 05:22 | -0.41659 | 104.95604 | 36484 ft | 492 kts | 143° |
| 2026-05-08 05:22 | -0.44484 | 104.97548 | 36826 ft | 491 kts | 143° |
| 2026-05-08 05:23 | -0.47300 | 104.99477 | 37126 ft | 491 kts | 144° |
| 2026-05-08 05:23 | -0.50121 | 105.01399 | 37450 ft | 490 kts | 144° |
| 2026-05-08 05:23 | -0.52936 | 105.03309 | 37751 ft | 489 kts | 144° |
| 2026-05-08 05:23 | -0.55750 | 105.05214 | 38045 ft | 488 kts | 144° |
| 2026-05-08 05:24 | -0.58562 | 105.07116 | 38316 ft | 488 kts | 144° |
| 2026-05-08 05:24 | -0.61367 | 105.09012 | 38594 ft | 487 kts | 144° |
| 2026-05-08 05:24 | -0.64175 | 105.10911 | 38808 ft | 487 kts | 144° |
| 2026-05-08 05:25 | -0.69798 | 105.14716 | 38873 ft | 489 kts | 144° |
| 2026-05-08 05:25 | -0.75443 | 105.18536 | 38867 ft | 490 kts | 144° |
| 2026-05-08 05:26 | -0.81101 | 105.22364 | 38868 ft | 492 kts | 144° |
| 2026-05-08 05:26 | -0.86766 | 105.26198 | 38868 ft | 492 kts | 144° |
| 2026-05-08 05:27 | -0.92431 | 105.30032 | 38867 ft | 491 kts | 144° |
| 2026-05-08 05:27 | -0.98069 | 105.33847 | 38865 ft | 488 kts | 143° |
| 2026-05-08 05:28 | -1.03652 | 105.37625 | 38863 ft | 488 kts | 143° |
| 2026-05-08 05:28 | -1.09262 | 105.41423 | 38862 ft | 487 kts | 143° |
| 2026-05-08 05:29 | -1.14889 | 105.45232 | 38862 ft | 489 kts | 143° |
| 2026-05-08 05:29 | -1.20527 | 105.49049 | 38863 ft | 490 kts | 143° |
| 2026-05-08 05:30 | -1.26172 | 105.52870 | 38862 ft | 490 kts | 143° |
| 2026-05-08 05:30 | -1.31814 | 105.56690 | 38863 ft | 490 kts | 143° |
| 2026-05-08 05:31 | -1.37463 | 105.60514 | 38859 ft | 490 kts | 143° |
| 2026-05-08 05:31 | -1.43109 | 105.64337 | 38852 ft | 490 kts | 143° |
| 2026-05-08 05:32 | -1.48762 | 105.68164 | 38857 ft | 491 kts | 144° |
| 2026-05-08 05:32 | -1.54365 | 105.71958 | 38857 ft | 489 kts | 144° |
| 2026-05-08 05:33 | -1.59988 | 105.75766 | 38855 ft | 488 kts | 144° |
| 2026-05-08 05:33 | -1.65615 | 105.79577 | 38854 ft | 488 kts | 143° |
| 2026-05-08 05:34 | -1.71233 | 105.83383 | 38856 ft | 488 kts | 143° |
| 2026-05-08 05:34 | -1.76851 | 105.87187 | 38854 ft | 488 kts | 143° |
| 2026-05-08 05:35 | -1.82480 | 105.91000 | 38853 ft | 488 kts | 144° |
| 2026-05-08 05:35 | -1.88109 | 105.94814 | 38853 ft | 490 kts | 143° |
| 2026-05-08 05:36 | -1.93761 | 105.98644 | 38855 ft | 492 kts | 143° |
| 2026-05-08 05:36 | -1.98471 | 106.01835 | 38853 ft | 492 kts | 143° |
| 2026-05-08 05:37 | -2.04138 | 106.05674 | 38853 ft | 492 kts | 143° |
| 2026-05-08 05:37 | -2.09806 | 106.09515 | 38853 ft | 492 kts | 143° |
| 2026-05-08 05:38 | -2.15565 | 106.13222 | 38854 ft | 494 kts | 150° |
| 2026-05-08 05:38 | -2.22008 | 106.15660 | 38855 ft | 497 kts | 161° |
| 2026-05-08 05:39 | -2.28684 | 106.17537 | 38855 ft | 499 kts | 163° |
| 2026-05-08 05:39 | -2.35387 | 106.19320 | 38850 ft | 499 kts | 163° |
| 2026-05-08 05:40 | -2.42095 | 106.21116 | 38852 ft | 499 kts | 163° |
| 2026-05-08 05:40 | -2.48796 | 106.22933 | 38849 ft | 499 kts | 162° |
| 2026-05-08 05:41 | -2.55449 | 106.24745 | 38851 ft | 499 kts | 162° |
| 2026-05-08 05:41 | -2.62151 | 106.26572 | 38854 ft | 500 kts | 163° |
| 2026-05-08 05:42 | -2.68890 | 106.28408 | 38852 ft | 501 kts | 163° |
| 2026-05-08 05:42 | -2.75615 | 106.30239 | 38851 ft | 501 kts | 163° |
| 2026-05-08 05:43 | -2.82354 | 106.32075 | 38848 ft | 501 kts | 163° |
| 2026-05-08 05:43 | -2.89090 | 106.33910 | 38850 ft | 501 kts | 163° |
| 2026-05-08 05:44 | -2.95820 | 106.35744 | 38854 ft | 502 kts | 162° |
| 2026-05-08 05:44 | -3.02591 | 106.37590 | 38852 ft | 505 kts | 162° |
| 2026-05-08 05:45 | -3.09382 | 106.39440 | 38855 ft | 506 kts | 162° |
| 2026-05-08 05:45 | -3.16176 | 106.41292 | 38851 ft | 506 kts | 162° |
| 2026-05-08 05:46 | -3.22921 | 106.43131 | 38849 ft | 506 kts | 162° |
| 2026-05-08 05:46 | -3.29710 | 106.44982 | 38843 ft | 506 kts | 162° |
| 2026-05-08 05:47 | -3.36500 | 106.46834 | 38846 ft | 506 kts | 162° |
| 2026-05-08 05:47 | -3.43289 | 106.48685 | 38848 ft | 506 kts | 162° |
| 2026-05-08 05:48 | -3.50086 | 106.50539 | 38846 ft | 506 kts | 162° |
| 2026-05-08 05:48 | -3.56873 | 106.52391 | 38845 ft | 506 kts | 162° |
| 2026-05-08 05:49 | -3.63670 | 106.54245 | 38845 ft | 506 kts | 162° |
| 2026-05-08 05:49 | -3.70458 | 106.56098 | 38844 ft | 505 kts | 162° |
| 2026-05-08 05:50 | -3.77234 | 106.57947 | 38846 ft | 504 kts | 162° |
| 2026-05-08 05:50 | -3.84002 | 106.59795 | 38844 ft | 504 kts | 162° |
| 2026-05-08 05:51 | -3.90774 | 106.61644 | 38847 ft | 504 kts | 162° |
| 2026-05-08 05:51 | -3.97547 | 106.63494 | 38842 ft | 504 kts | 162° |
| 2026-05-08 05:52 | -4.04272 | 106.65331 | 38840 ft | 504 kts | 163° |
| 2026-05-08 05:52 | -4.11059 | 106.67185 | 38845 ft | 506 kts | 163° |
| 2026-05-08 05:53 | -4.17858 | 106.69043 | 38842 ft | 506 kts | 163° |
| 2026-05-08 05:53 | -4.24661 | 106.70902 | 38840 ft | 506 kts | 163° |
| 2026-05-08 05:54 | -4.31460 | 106.72760 | 38839 ft | 507 kts | 163° |
| 2026-05-08 05:54 | -4.38261 | 106.74619 | 38844 ft | 507 kts | 163° |
| 2026-05-08 05:55 | -4.45056 | 106.76477 | 38845 ft | 505 kts | 163° |
| 2026-05-08 05:55 | -4.51841 | 106.78333 | 38843 ft | 504 kts | 163° |
| 2026-05-08 05:56 | -4.58611 | 106.80185 | 38839 ft | 504 kts | 163° |
| 2026-05-08 05:56 | -4.65382 | 106.82037 | 38841 ft | 504 kts | 163° |
| 2026-05-08 05:57 | -4.72152 | 106.83890 | 38845 ft | 504 kts | 163° |
| 2026-05-08 05:57 | -4.78929 | 106.85742 | 38844 ft | 504 kts | 164° |
| 2026-05-08 05:58 | -4.85680 | 106.87573 | 38837 ft | 503 kts | 164° |
| 2026-05-08 05:58 | -4.92430 | 106.89404 | 38841 ft | 502 kts | 164° |
| 2026-05-08 05:59 | -4.99182 | 106.91239 | 38838 ft | 502 kts | 164° |
| 2026-05-08 05:59 | -5.05929 | 106.93074 | 38836 ft | 503 kts | 164° |
| 2026-05-08 06:00 | -5.12678 | 106.94909 | 38836 ft | 503 kts | 163° |
| 2026-05-08 06:00 | -5.19394 | 106.96737 | 38837 ft | 503 kts | 163° |
| 2026-05-08 06:01 | -5.26153 | 106.98576 | 38837 ft | 503 kts | 163° |
| 2026-05-08 06:01 | -5.32903 | 107.00414 | 38829 ft | 503 kts | 163° |
| 2026-05-08 06:02 | -5.39656 | 107.02252 | 38830 ft | 503 kts | 163° |
| 2026-05-08 06:02 | -5.46415 | 107.04093 | 38833 ft | 503 kts | 163° |
| 2026-05-08 06:03 | -5.53163 | 107.05931 | 38829 ft | 502 kts | 163° |
| 2026-05-08 06:03 | -5.59912 | 107.07770 | 38828 ft | 502 kts | 163° |
| 2026-05-08 06:04 | -5.66655 | 107.09608 | 38832 ft | 502 kts | 163° |
| 2026-05-08 06:04 | -5.73393 | 107.11444 | 38826 ft | 502 kts | 163° |
| 2026-05-08 06:05 | -5.80135 | 107.13283 | 38815 ft | 502 kts | 163° |
| 2026-05-08 06:05 | -5.86833 | 107.15109 | 38826 ft | 502 kts | 164° |
| 2026-05-08 06:06 | -5.93572 | 107.16948 | 38827 ft | 502 kts | 164° |
| 2026-05-08 06:06 | -6.00304 | 107.18784 | 38820 ft | 502 kts | 164° |
| 2026-05-08 06:07 | -6.07049 | 107.20625 | 38824 ft | 502 kts | 164° |
| 2026-05-08 06:07 | -6.13779 | 107.22463 | 38815 ft | 502 kts | 164° |
| 2026-05-08 06:08 | -6.20517 | 107.24303 | 38818 ft | 502 kts | 164° |
| 2026-05-08 06:08 | -6.27280 | 107.26150 | 38813 ft | 504 kts | 164° |
| 2026-05-08 06:09 | -6.34055 | 107.28001 | 38824 ft | 504 kts | 164° |
| 2026-05-08 06:09 | -6.40834 | 107.29854 | 38832 ft | 504 kts | 164° |
| 2026-05-08 06:10 | -6.47608 | 107.31705 | 38823 ft | 504 kts | 164° |
| 2026-05-08 06:10 | -6.54336 | 107.33545 | 38844 ft | 504 kts | 164° |
| 2026-05-08 06:11 | -6.61104 | 107.35397 | 38831 ft | 503 kts | 164° |
| 2026-05-08 06:11 | -6.67857 | 107.37244 | 38857 ft | 503 kts | 164° |
| 2026-05-08 06:12 | -6.74607 | 107.39091 | 38862 ft | 502 kts | 164° |
| 2026-05-08 06:12 | -6.81358 | 107.40940 | 38847 ft | 503 kts | 164° |
| 2026-05-08 06:13 | -6.88129 | 107.42794 | 38868 ft | 504 kts | 164° |
| 2026-05-08 06:13 | -6.94898 | 107.44648 | 38877 ft | 504 kts | 164° |
| 2026-05-08 06:14 | -7.01670 | 107.46503 | 38883 ft | 504 kts | 164° |
| 2026-05-08 06:14 | -7.08447 | 107.48360 | 38891 ft | 504 kts | 164° |
| 2026-05-08 06:15 | -7.15219 | 107.50217 | 38887 ft | 504 kts | 164° |
| 2026-05-08 06:15 | -7.21991 | 107.52075 | 38878 ft | 504 kts | 164° |
| 2026-05-08 06:16 | -7.28755 | 107.53930 | 38874 ft | 503 kts | 165° |
| 2026-05-08 06:16 | -7.35487 | 107.55778 | 38885 ft | 501 kts | 165° |
| 2026-05-08 06:17 | -7.45571 | 107.58546 | 38868 ft | 500 kts | 165° |
| 2026-05-08 06:17 | -7.52292 | 107.60392 | 38875 ft | 501 kts | 165° |
| 2026-05-08 06:18 | -7.59011 | 107.62238 | 38853 ft | 500 kts | 165° |
| 2026-05-08 06:18 | -7.65694 | 107.64074 | 38857 ft | 503 kts | 164° |
| 2026-05-08 06:19 | -7.72451 | 107.65932 | 38841 ft | 503 kts | 164° |
| 2026-05-08 06:19 | -7.79203 | 107.67789 | 38840 ft | 503 kts | 164° |
| 2026-05-08 06:20 | -7.85969 | 107.69650 | 38841 ft | 503 kts | 165° |
| 2026-05-08 06:20 | -7.92718 | 107.71507 | 38844 ft | 504 kts | 164° |
| 2026-05-08 06:21 | -7.99484 | 107.73370 | 38832 ft | 503 kts | 165° |
| 2026-05-08 06:21 | -8.06230 | 107.75228 | 38847 ft | 502 kts | 165° |
| 2026-05-08 06:22 | -8.12962 | 107.77082 | 38836 ft | 500 kts | 165° |
| 2026-05-08 06:22 | -8.19673 | 107.78931 | 38848 ft | 500 kts | 165° |
| 2026-05-08 06:23 | -8.25258 | 107.80471 | 38831 ft | 500 kts | 165° |
| 2026-05-08 06:23 | -8.31971 | 107.82323 | 38843 ft | 500 kts | 166° |
| 2026-05-08 06:24 | -8.38662 | 107.84191 | 38838 ft | 497 kts | 165° |
| 2026-05-08 06:24 | -8.45300 | 107.86092 | 38836 ft | 496 kts | 166° |
| 2026-05-08 06:25 | -8.51942 | 107.87996 | 38842 ft | 496 kts | 165° |
| 2026-05-08 06:25 | -8.58576 | 107.89892 | 38842 ft | 496 kts | 166° |
| 2026-05-08 06:26 | -8.65223 | 107.91788 | 38841 ft | 496 kts | 165° |
| 2026-05-08 06:26 | -8.71818 | 107.93671 | 38840 ft | 495 kts | 166° |
| 2026-05-08 06:27 | -8.78452 | 107.95564 | 38843 ft | 495 kts | 165° |
| 2026-05-08 06:27 | -8.85082 | 107.97458 | 38843 ft | 495 kts | 166° |
| 2026-05-08 06:28 | -8.91719 | 107.99354 | 38845 ft | 495 kts | 165° |
| 2026-05-08 06:28 | -8.98354 | 108.01251 | 38849 ft | 496 kts | 166° |
| 2026-05-08 06:29 | -9.04990 | 108.03149 | 38844 ft | 495 kts | 166° |
| 2026-05-08 06:29 | -9.11622 | 108.05046 | 38845 ft | 495 kts | 166° |
| 2026-05-08 06:30 | -9.18254 | 108.06944 | 38846 ft | 495 kts | 166° |
| 2026-05-08 06:30 | -9.24891 | 108.08843 | 38849 ft | 495 kts | 166° |
| 2026-05-08 06:31 | -9.31521 | 108.10742 | 38847 ft | 495 kts | 166° |
| 2026-05-08 06:31 | -9.38158 | 108.12644 | 38846 ft | 495 kts | 166° |
| 2026-05-08 06:32 | -9.44792 | 108.14546 | 38846 ft | 495 kts | 166° |
| 2026-05-08 06:32 | -9.51416 | 108.16445 | 38846 ft | 495 kts | 166° |
| 2026-05-08 06:33 | -9.58052 | 108.18348 | 38848 ft | 495 kts | 166° |
| 2026-05-08 06:33 | -9.64653 | 108.20243 | 38848 ft | 495 kts | 166° |
| 2026-05-08 06:34 | -9.71280 | 108.22145 | 38850 ft | 495 kts | 166° |
| 2026-05-08 06:34 | -9.77909 | 108.24049 | 38847 ft | 494 kts | 166° |
| 2026-05-08 06:35 | -9.84520 | 108.25949 | 38847 ft | 494 kts | 166° |
| 2026-05-08 06:35 | -9.91140 | 108.27852 | 38847 ft | 494 kts | 166° |
| 2026-05-08 06:36 | -9.97750 | 108.29753 | 38849 ft | 494 kts | 166° |
| 2026-05-08 06:36 | -10.04360 | 108.31654 | 38850 ft | 494 kts | 166° |
| 2026-05-08 06:37 | -10.10999 | 108.33564 | 38852 ft | 497 kts | 166° |
| 2026-05-08 06:37 | -10.17670 | 108.35485 | 38852 ft | 499 kts | 166° |
| 2026-05-08 06:38 | -10.24309 | 108.37398 | 38851 ft | 499 kts | 166° |
| 2026-05-08 06:38 | -10.30995 | 108.39325 | 38851 ft | 499 kts | 166° |
| 2026-05-08 06:39 | -10.37677 | 108.41251 | 38856 ft | 499 kts | 166° |
| 2026-05-08 06:39 | -10.44354 | 108.43178 | 38856 ft | 499 kts | 167° |
| 2026-05-08 06:40 | -10.51043 | 108.45108 | 38854 ft | 500 kts | 167° |
| 2026-05-08 06:40 | -10.57728 | 108.47038 | 38855 ft | 500 kts | 167° |
| 2026-05-08 06:41 | -10.64420 | 108.48971 | 38855 ft | 500 kts | 167° |
| 2026-05-08 06:41 | -10.71106 | 108.50903 | 38853 ft | 500 kts | 167° |
| 2026-05-08 06:42 | -10.77801 | 108.52838 | 38853 ft | 500 kts | 166° |
| 2026-05-08 06:42 | -10.84508 | 108.54778 | 38851 ft | 501 kts | 166° |
| 2026-05-08 06:43 | -10.91214 | 108.56718 | 38857 ft | 501 kts | 166° |
| 2026-05-08 06:43 | -10.97926 | 108.58661 | 38860 ft | 501 kts | 166° |
| 2026-05-08 06:44 | -11.04635 | 108.60605 | 38859 ft | 501 kts | 166° |
| 2026-05-08 06:44 | -11.11299 | 108.62536 | 38861 ft | 500 kts | 167° |
| 2026-05-08 06:45 | -11.17981 | 108.64474 | 38859 ft | 498 kts | 167° |
| 2026-05-08 06:45 | -11.24646 | 108.66407 | 38858 ft | 498 kts | 167° |
| 2026-05-08 06:46 | -11.31304 | 108.68339 | 38858 ft | 498 kts | 167° |
| 2026-05-08 06:46 | -11.37977 | 108.70275 | 38859 ft | 498 kts | 167° |
| 2026-05-08 06:47 | -11.44638 | 108.72211 | 38860 ft | 498 kts | 167° |
| 2026-05-08 06:47 | -11.51304 | 108.74148 | 38860 ft | 498 kts | 167° |
| 2026-05-08 06:48 | -11.57970 | 108.76086 | 38857 ft | 498 kts | 167° |
| 2026-05-08 06:48 | -11.64636 | 108.78025 | 38857 ft | 498 kts | 167° |
| 2026-05-08 06:49 | -11.71290 | 108.79962 | 38860 ft | 496 kts | 167° |
| 2026-05-08 06:49 | -11.77887 | 108.81884 | 38863 ft | 496 kts | 168° |
| 2026-05-08 06:50 | -11.84574 | 108.83831 | 38864 ft | 497 kts | 168° |
| 2026-05-08 06:50 | -11.91181 | 108.85757 | 38861 ft | 497 kts | 168° |
| 2026-05-08 06:51 | -11.97822 | 108.87694 | 38862 ft | 497 kts | 168° |
| 2026-05-08 06:51 | -12.04460 | 108.89727 | 38860 ft | 498 kts | 165° |
| 2026-05-08 06:52 | -12.11013 | 108.92041 | 38870 ft | 499 kts | 164° |
| 2026-05-08 06:52 | -12.17572 | 108.94389 | 38866 ft | 498 kts | 165° |
| 2026-05-08 06:53 | -12.24131 | 108.96692 | 38863 ft | 498 kts | 165° |
| 2026-05-08 06:53 | -12.30702 | 108.98974 | 38865 ft | 498 kts | 165° |
| 2026-05-08 06:54 | -12.37261 | 109.01247 | 38867 ft | 498 kts | 165° |
| 2026-05-08 06:54 | -12.43834 | 109.03528 | 38866 ft | 498 kts | 165° |
| 2026-05-08 06:55 | -12.50389 | 109.05806 | 38869 ft | 497 kts | 165° |
| 2026-05-08 06:55 | -12.56882 | 109.08063 | 38868 ft | 496 kts | 165° |
| 2026-05-08 06:56 | -12.63417 | 109.10336 | 38865 ft | 496 kts | 165° |
| 2026-05-08 06:56 | -12.69952 | 109.12610 | 38869 ft | 496 kts | 166° |
| 2026-05-08 06:57 | -12.76477 | 109.14882 | 38870 ft | 495 kts | 166° |
| 2026-05-08 06:57 | -12.83005 | 109.17156 | 38871 ft | 496 kts | 166° |
| 2026-05-08 06:58 | -12.89538 | 109.19433 | 38869 ft | 496 kts | 166° |
| 2026-05-08 06:58 | -12.96070 | 109.21712 | 38867 ft | 496 kts | 166° |
| 2026-05-08 06:59 | -13.02609 | 109.23994 | 38865 ft | 496 kts | 166° |
| 2026-05-08 06:59 | -13.09141 | 109.26274 | 38872 ft | 496 kts | 166° |
| 2026-05-08 07:00 | -13.15669 | 109.28555 | 38876 ft | 496 kts | 166° |
| 2026-05-08 07:00 | -13.22202 | 109.30839 | 38879 ft | 496 kts | 166° |
| 2026-05-08 07:01 | -13.28728 | 109.33121 | 38874 ft | 496 kts | 166° |
| 2026-05-08 07:01 | -13.35213 | 109.35390 | 38876 ft | 496 kts | 166° |
| 2026-05-08 07:02 | -13.41746 | 109.37678 | 38879 ft | 496 kts | 166° |
| 2026-05-08 07:02 | -13.48270 | 109.39964 | 38890 ft | 495 kts | 166° |
| 2026-05-08 07:03 | -13.54797 | 109.42252 | 38877 ft | 495 kts | 166° |
| 2026-05-08 07:03 | -13.61317 | 109.44539 | 38875 ft | 495 kts | 166° |
| 2026-05-08 07:04 | -13.67838 | 109.46828 | 38877 ft | 495 kts | 166° |
| 2026-05-08 07:04 | -13.74359 | 109.49117 | 38879 ft | 495 kts | 166° |
| 2026-05-08 07:05 | -13.80878 | 109.51408 | 38879 ft | 495 kts | 166° |
| 2026-05-08 07:05 | -13.87400 | 109.53701 | 38890 ft | 495 kts | 166° |
| 2026-05-08 07:06 | -13.93920 | 109.55995 | 38882 ft | 495 kts | 166° |
| 2026-05-08 07:06 | -14.00441 | 109.58290 | 38881 ft | 495 kts | 166° |
| 2026-05-08 07:07 | -14.06960 | 109.60587 | 38884 ft | 495 kts | 166° |
| 2026-05-08 07:07 | -14.13438 | 109.62870 | 38884 ft | 495 kts | 166° |
| 2026-05-08 07:08 | -14.19961 | 109.65170 | 38884 ft | 495 kts | 166° |
| 2026-05-08 07:08 | -14.26475 | 109.67468 | 38886 ft | 495 kts | 166° |
| 2026-05-08 07:09 | -14.32989 | 109.69768 | 38886 ft | 495 kts | 166° |
| 2026-05-08 07:09 | -14.39503 | 109.72069 | 38893 ft | 495 kts | 166° |
| 2026-05-08 07:10 | -14.46015 | 109.74371 | 38892 ft | 494 kts | 166° |
| 2026-05-08 07:10 | -14.52517 | 109.76672 | 38892 ft | 494 kts | 166° |
| 2026-05-08 07:11 | -14.57922 | 109.78585 | 38892 ft | 494 kts | 166° |
| 2026-05-08 07:11 | -14.64418 | 109.80885 | 38895 ft | 494 kts | 166° |
| 2026-05-08 07:12 | -14.70919 | 109.83189 | 38895 ft | 494 kts | 166° |